createdAt,value
2019-05-20T00:00:33.916Z,4.00
2019-05-20T00:03:03.414Z,4.73
2019-05-20T00:05:33.076Z,2.97
2019-05-20T00:08:02.664Z,4.13
2019-05-20T00:10:32.305Z,1.40
2019-05-20T00:13:01.693Z,1.40
2019-05-20T00:15:31.384Z,1.50
2019-05-20T00:18:00.782Z,2.33
2019-05-20T00:20:30.380Z,2.33
2019-05-20T00:22:59.952Z,1.50
2019-05-20T00:25:31.794Z,1.57
2019-05-20T00:28:01.224Z,2.60
2019-05-20T00:30:33.046Z,1.43
2019-05-20T00:33:02.437Z,2.70
2019-05-20T00:35:31.889Z,1.40
2019-05-20T00:38:01.264Z,1.30
2019-05-20T00:40:30.728Z,1.20
2019-05-20T00:43:00.322Z,2.37
2019-05-20T00:45:29.812Z,1.10
2019-05-20T00:47:59.340Z,1.20
2019-05-20T00:50:29.150Z,1.10
2019-05-20T00:52:58.566Z,2.70
2019-05-20T00:55:31.615Z,1.43
2019-05-20T00:58:01.021Z,0.97
2019-05-20T01:00:31.611Z,1.20
2019-05-20T01:03:01.872Z,3.73
2019-05-20T01:05:31.370Z,2.23
2019-05-20T01:08:00.795Z,3.57
2019-05-20T01:10:30.509Z,3.37
2019-05-20T01:12:59.890Z,2.47
2019-05-20T01:15:29.427Z,2.17
2019-05-20T01:17:58.984Z,2.90
2019-05-20T01:20:28.443Z,1.13
2019-05-20T01:22:59.088Z,1.53
2019-05-20T01:25:30.322Z,1.30
2019-05-20T01:28:00.083Z,1.37
2019-05-20T01:30:29.523Z,1.40
2019-05-20T01:33:12.772Z,1.60
2019-05-20T01:35:30.180Z,2.87
2019-05-20T01:37:59.607Z,1.73
2019-05-20T01:40:29.006Z,2.00
2019-05-20T01:42:58.439Z,1.70
2019-05-20T01:45:27.772Z,1.70
2019-05-20T01:47:57.832Z,1.77
2019-05-20T01:50:27.272Z,3.10
2019-05-20T01:52:56.777Z,1.87
2019-05-20T01:55:26.175Z,3.07
2019-05-20T01:57:55.576Z,1.57
2019-05-20T02:00:25.066Z,2.93
2019-05-20T02:02:54.741Z,3.07
2019-05-20T02:05:24.157Z,2.43
2019-05-20T02:07:53.957Z,3.33
2019-05-20T02:10:23.485Z,1.50
2019-05-20T02:12:52.857Z,1.70
2019-05-20T02:15:41.308Z,1.83
2019-05-20T02:18:10.873Z,1.80
2019-05-20T02:20:40.341Z,1.63
2019-05-20T02:23:16.330Z,1.70
2019-05-20T02:25:47.077Z,1.57
2019-05-20T02:28:19.762Z,1.70
2019-05-20T02:30:49.106Z,3.00
2019-05-20T02:33:19.433Z,1.67
2019-05-20T02:35:49.085Z,1.70
2019-05-20T02:38:18.640Z,2.37
2019-05-20T02:40:48.165Z,1.70
2019-05-20T02:43:17.638Z,1.73
2019-05-20T02:45:47.238Z,4.17
2019-05-20T02:48:17.026Z,1.83
2019-05-20T02:50:46.479Z,3.00
2019-05-20T02:53:15.857Z,3.23
2019-05-20T02:55:45.509Z,1.57
2019-05-20T02:58:14.916Z,1.97
2019-05-20T03:00:44.400Z,1.97
2019-05-20T03:03:14.807Z,1.80
2019-05-20T03:05:44.613Z,1.77
2019-05-20T03:08:14.101Z,2.20
2019-05-20T03:10:43.785Z,1.60
2019-05-20T03:13:13.197Z,2.07
2019-05-20T03:15:42.907Z,2.63
2019-05-20T03:18:12.301Z,1.80
2019-05-20T03:20:41.804Z,2.67
2019-05-20T03:23:11.497Z,1.97
2019-05-20T03:25:41.496Z,3.03
2019-05-20T03:28:10.952Z,1.83
2019-05-20T03:30:40.522Z,2.73
2019-05-20T03:33:09.950Z,2.57
2019-05-20T03:35:39.363Z,1.80
2019-05-20T03:38:08.816Z,2.03
2019-05-20T03:40:38.382Z,2.90
2019-05-20T03:43:07.856Z,1.70
2019-05-20T03:45:37.391Z,2.23
2019-05-20T03:48:06.882Z,2.40
2019-05-20T03:50:36.341Z,1.80
2019-05-20T03:53:06.157Z,2.20
2019-05-20T03:55:35.536Z,2.10
2019-05-20T03:58:05.062Z,5.57
2019-05-20T04:00:43.492Z,1.90
2019-05-20T04:03:13.213Z,5.87
2019-05-20T04:05:42.707Z,2.20
2019-05-20T04:08:12.140Z,2.80
2019-05-20T04:10:41.582Z,2.50
2019-05-20T04:13:11.241Z,2.60
2019-05-20T04:15:40.680Z,3.30
2019-05-20T04:18:10.191Z,2.50
2019-05-20T04:20:39.720Z,2.37
2019-05-20T04:23:09.277Z,2.03
2019-05-20T04:25:38.851Z,2.23
2019-05-20T04:28:08.334Z,2.80
2019-05-20T04:30:37.860Z,2.20
2019-05-20T04:33:07.390Z,4.67
2019-05-20T04:35:36.872Z,2.20
2019-05-20T04:38:06.406Z,1.90
2019-05-20T04:40:35.995Z,2.30
2019-05-20T04:43:05.722Z,3.10
2019-05-20T04:45:35.250Z,2.37
2019-05-20T04:48:04.710Z,1.83
2019-05-20T04:50:34.150Z,2.60
2019-05-20T04:53:03.843Z,2.23
2019-05-20T04:55:33.403Z,3.77
2019-05-20T04:58:03.093Z,2.60
2019-05-20T05:01:03.724Z,3.57
2019-05-20T05:03:33.414Z,2.57
2019-05-20T05:06:02.861Z,2.70
2019-05-20T05:08:32.529Z,2.77
2019-05-20T05:11:02.003Z,2.60
2019-05-20T05:13:31.574Z,2.63
2019-05-20T05:16:01.091Z,3.07
2019-05-20T05:18:30.864Z,2.83
2019-05-20T05:21:00.154Z,2.67
2019-05-20T05:23:29.611Z,2.57
2019-05-20T05:25:59.203Z,3.13
2019-05-20T05:28:28.820Z,5.13
2019-05-20T05:30:58.465Z,3.77
2019-05-20T05:33:27.995Z,7.87
2019-05-20T05:35:57.499Z,6.87
2019-05-20T05:38:27.229Z,7.83
2019-05-20T05:40:56.686Z,8.70
2019-05-20T05:43:26.204Z,6.83
2019-05-20T05:45:55.872Z,5.80
2019-05-20T05:48:25.251Z,6.93
2019-05-20T05:50:55.251Z,7.50
2019-05-20T05:53:24.575Z,6.40
2019-05-20T05:55:54.347Z,6.73
2019-05-20T05:58:23.697Z,5.80
2019-05-20T06:00:53.157Z,5.80
2019-05-20T06:03:22.554Z,5.73
2019-05-20T06:05:52.158Z,5.17
2019-05-20T06:08:23.333Z,7.07
2019-05-20T06:10:52.750Z,5.80
2019-05-20T06:13:22.113Z,6.67
2019-05-20T06:15:54.497Z,6.37
2019-05-20T06:18:22.677Z,5.43
2019-05-20T06:20:52.185Z,4.73
2019-05-20T06:23:21.836Z,6.10
2019-05-20T06:25:51.323Z,5.20
2019-05-20T06:28:20.912Z,6.53
2019-05-20T06:30:50.476Z,8.43
2019-05-20T06:33:20.148Z,6.33
2019-05-20T06:35:50.036Z,7.43
2019-05-20T06:38:41.518Z,10.30
2019-05-20T06:41:11.049Z,12.87
2019-05-20T06:43:40.681Z,12.63
2019-05-20T06:46:10.215Z,13.33
2019-05-20T06:48:39.660Z,13.83
2019-05-20T06:51:09.233Z,13.50
2019-05-20T06:53:38.709Z,13.47
2019-05-20T06:56:08.338Z,11.60
2019-05-20T06:58:38.020Z,11.77
2019-05-20T07:01:07.497Z,11.87
2019-05-20T07:03:36.939Z,12.67
2019-05-20T07:06:06.576Z,11.60
2019-05-20T07:08:36.305Z,11.37
2019-05-20T07:11:05.708Z,12.70
2019-05-20T07:13:35.164Z,12.50
2019-05-20T07:16:04.817Z,12.73
2019-05-20T07:18:34.255Z,12.83
2019-05-20T07:21:03.956Z,12.47
2019-05-20T07:23:33.379Z,12.67
2019-05-20T07:26:03.379Z,13.77
2019-05-20T07:28:32.860Z,15.30
2019-05-20T07:31:02.543Z,14.13
2019-05-20T07:33:33.199Z,12.67
2019-05-20T07:36:02.738Z,12.53
2019-05-20T07:38:32.147Z,12.63
2019-05-20T07:41:01.741Z,12.90
2019-05-20T07:43:31.185Z,13.20
2019-05-20T07:46:01.453Z,16.03
2019-05-20T07:48:33.076Z,14.23
2019-05-20T07:51:04.179Z,13.93
2019-05-20T07:53:35.852Z,14.17
2019-05-20T07:56:09.251Z,14.40
2019-05-20T07:58:41.121Z,14.67
2019-05-20T08:01:10.566Z,15.50
2019-05-20T08:03:40.281Z,14.37
2019-05-20T08:06:09.777Z,14.97
2019-05-20T08:08:39.288Z,14.50
2019-05-20T08:11:08.720Z,15.57
2019-05-20T08:13:38.103Z,17.27
2019-05-20T08:16:09.927Z,12.93
2019-05-20T08:18:39.419Z,17.30
2019-05-20T08:21:09.560Z,12.87
2019-05-20T08:23:39.073Z,15.63
2019-05-20T08:26:08.757Z,12.03
2019-05-20T08:28:38.290Z,15.10
2019-05-20T08:31:08.056Z,13.40
2019-05-20T08:33:37.392Z,12.73
2019-05-20T08:36:07.212Z,12.20
2019-05-20T08:38:36.624Z,12.63
2019-05-20T08:41:06.099Z,11.63
2019-05-20T08:43:35.458Z,11.60
2019-05-20T08:46:05.041Z,10.87
2019-05-20T08:48:34.541Z,11.90
2019-05-20T08:51:04.084Z,12.20
2019-05-20T08:53:33.625Z,11.97
2019-05-20T08:56:03.285Z,12.87
2019-05-20T08:58:32.747Z,12.47
2019-05-20T09:01:02.294Z,12.80
2019-05-20T09:03:34.203Z,15.47
2019-05-20T09:06:04.937Z,12.30
2019-05-20T09:08:34.419Z,11.37
2019-05-20T09:11:06.169Z,11.87
2019-05-20T09:13:35.571Z,11.33
2019-05-20T09:16:05.949Z,11.73
2019-05-20T09:18:36.242Z,12.47
2019-05-20T09:21:09.545Z,13.57
2019-05-20T09:23:41.301Z,11.93
2019-05-20T09:26:13.760Z,12.63
2019-05-20T09:28:43.149Z,13.87
2019-05-20T09:31:13.140Z,13.03
2019-05-20T09:33:43.991Z,13.10
2019-05-20T09:36:16.199Z,13.13
2019-05-20T09:38:45.631Z,13.20
2019-05-20T09:41:15.219Z,12.00
2019-05-20T09:43:44.669Z,11.57
2019-05-20T09:46:14.394Z,11.63
2019-05-20T09:48:43.895Z,12.00
2019-05-20T09:51:13.565Z,14.30
2019-05-20T09:53:42.914Z,13.00
2019-05-20T09:56:12.377Z,14.63
2019-05-20T09:58:41.802Z,15.73
2019-05-20T10:01:11.162Z,13.63
2019-05-20T10:03:40.681Z,13.37
2019-05-20T10:06:10.743Z,14.03
2019-05-20T10:08:44.720Z,13.43
2019-05-20T10:11:11.676Z,13.10
2019-05-20T10:13:41.460Z,14.10
2019-05-20T10:16:11.272Z,14.70
2019-05-20T10:18:40.690Z,14.87
2019-05-20T10:21:10.253Z,12.97
2019-05-20T10:23:39.992Z,14.07
2019-05-20T10:26:09.678Z,14.47
2019-05-20T10:28:42.059Z,14.17
2019-05-20T10:31:10.500Z,13.47
2019-05-20T10:33:40.610Z,13.63
2019-05-20T10:36:10.151Z,13.87
2019-05-20T10:38:56.915Z,14.43
2019-05-20T10:41:11.346Z,15.60
2019-05-20T10:43:41.098Z,15.63
2019-05-20T10:46:10.642Z,15.97
2019-05-20T10:48:40.323Z,16.33
2019-05-20T10:51:11.721Z,16.30
2019-05-20T10:53:41.400Z,16.57
2019-05-20T10:56:11.318Z,17.27
2019-05-20T10:58:41.450Z,18.33
2019-05-20T11:01:11.190Z,16.93
2019-05-20T11:03:40.661Z,16.80
2019-05-20T11:06:11.302Z,15.90
2019-05-20T11:08:40.901Z,16.33
2019-05-20T11:11:14.204Z,15.87
2019-05-20T11:13:42.040Z,16.63
2019-05-20T11:16:11.528Z,16.23
2019-05-20T11:18:41.028Z,16.97
2019-05-20T11:21:10.501Z,17.20
2019-05-20T11:23:39.905Z,17.17
2019-05-20T11:26:09.414Z,17.73
2019-05-20T11:28:38.934Z,17.37
2019-05-20T11:31:08.573Z,17.73
2019-05-20T11:33:38.036Z,19.07
2019-05-20T11:36:07.600Z,20.13
2019-05-20T11:38:37.110Z,18.40
2019-05-20T11:41:06.680Z,18.70
2019-05-20T11:43:36.146Z,18.87
2019-05-20T11:46:05.909Z,18.00
2019-05-20T11:48:35.476Z,16.90
2019-05-20T11:51:05.005Z,17.57
2019-05-20T11:53:34.464Z,16.87
2019-05-20T11:56:04.085Z,17.03
2019-05-20T11:58:33.531Z,16.97
2019-05-20T12:01:03.299Z,15.57
2019-05-20T12:03:32.698Z,15.93
2019-05-20T12:06:02.920Z,15.87
2019-05-20T12:08:33.138Z,15.37
2019-05-20T12:11:02.596Z,13.03
2019-05-20T12:13:32.004Z,13.90
2019-05-20T12:16:01.556Z,15.47
2019-05-20T12:18:30.979Z,17.97
2019-05-20T12:21:00.579Z,14.33
2019-05-20T12:23:30.898Z,15.40
2019-05-20T12:26:00.650Z,14.40
2019-05-20T12:28:31.359Z,14.37
2019-05-20T12:31:01.025Z,13.77
2019-05-20T12:33:31.167Z,14.37
2019-05-20T12:36:00.849Z,14.93
2019-05-20T12:38:30.602Z,15.67
2019-05-20T12:41:00.489Z,14.57
2019-05-20T12:43:30.640Z,14.90
2019-05-20T12:46:00.645Z,14.33
2019-05-20T12:48:30.602Z,15.57
2019-05-20T12:51:00.227Z,16.27
2019-05-20T12:53:29.930Z,15.43
2019-05-20T12:55:59.533Z,16.67
2019-05-20T12:58:29.371Z,16.37
2019-05-20T13:00:59.084Z,17.23
2019-05-20T13:03:28.884Z,18.17
2019-05-20T13:05:58.577Z,17.63
2019-05-20T13:08:28.123Z,16.40
2019-05-20T13:10:59.243Z,18.40
2019-05-20T13:13:29.293Z,18.33
2019-05-20T13:15:58.834Z,23.23
2019-05-20T13:18:28.416Z,38.67
2019-05-20T13:20:58.302Z,25.33
2019-05-20T13:23:27.919Z,17.63
2019-05-20T13:25:57.483Z,19.23
2019-05-20T13:28:27.051Z,55.30
2019-05-20T13:30:56.611Z,28.73
2019-05-20T13:33:26.419Z,23.23
2019-05-20T13:36:14.939Z,27.20
2019-05-20T13:38:44.828Z,19.57
2019-05-20T13:41:14.420Z,18.93
2019-05-20T13:43:44.110Z,16.57
2019-05-20T13:46:13.826Z,15.87
2019-05-20T13:48:43.246Z,16.77
2019-05-20T13:51:12.761Z,16.00
2019-05-20T13:53:42.513Z,37.57
2019-05-20T13:56:12.460Z,61.93
2019-05-20T13:58:42.294Z,29.53
2019-05-20T14:01:11.949Z,36.67
2019-05-20T14:03:41.741Z,25.20
2019-05-20T14:06:11.315Z,19.43
2019-05-20T14:08:40.761Z,29.20
2019-05-20T14:11:17.121Z,20.47
2019-05-20T14:13:46.884Z,19.17
2019-05-20T14:16:17.867Z,18.87
2019-05-20T14:18:47.940Z,21.23
2019-05-20T14:21:18.930Z,20.10
2019-05-20T14:23:48.590Z,18.83
2019-05-20T14:26:20.019Z,19.77
2019-05-20T14:28:50.062Z,20.87
2019-05-20T14:31:19.694Z,21.97
2019-05-20T14:33:49.608Z,20.93
2019-05-20T14:36:38.765Z,20.50
2019-05-20T14:38:52.728Z,19.10
2019-05-20T14:41:22.391Z,19.30
2019-05-20T14:43:51.820Z,17.67
2019-05-20T14:46:21.530Z,18.53
2019-05-20T14:48:50.998Z,21.23
2019-05-20T14:51:20.698Z,17.67
2019-05-20T14:53:50.368Z,18.13
2019-05-20T14:56:19.975Z,20.87
2019-05-20T14:58:49.484Z,17.73
2019-05-20T15:01:18.970Z,18.50
2019-05-20T15:03:50.104Z,17.67
2019-05-20T15:06:19.808Z,17.47
2019-05-20T15:08:49.597Z,15.47
2019-05-20T15:11:19.858Z,14.03
2019-05-20T15:13:49.622Z,14.50
2019-05-20T15:16:19.264Z,13.33
2019-05-20T15:18:49.096Z,12.83
2019-05-20T15:21:18.779Z,13.77
2019-05-20T15:23:48.527Z,13.90
2019-05-20T15:26:18.175Z,12.00
2019-05-20T15:28:47.849Z,11.13
2019-05-20T15:31:17.505Z,11.13
2019-05-20T15:33:47.605Z,12.17
2019-05-20T15:36:18.159Z,12.47
2019-05-20T15:38:47.805Z,12.07
2019-05-20T15:41:17.658Z,11.47
2019-05-20T15:43:47.878Z,11.90
2019-05-20T15:46:17.710Z,12.37
2019-05-20T15:48:47.624Z,11.23
2019-05-20T15:51:17.515Z,10.67
2019-05-20T15:53:50.384Z,12.10
2019-05-20T15:56:20.249Z,13.13
2019-05-20T15:58:51.261Z,12.93
2019-05-20T16:01:20.963Z,12.60
2019-05-20T16:03:51.618Z,14.13
2019-05-20T16:06:21.551Z,14.10
2019-05-20T16:08:52.099Z,14.90
2019-05-20T16:11:21.769Z,16.00
2019-05-20T16:13:51.946Z,20.23
2019-05-20T16:16:22.653Z,17.27
2019-05-20T16:18:52.332Z,15.60
2019-05-20T16:21:21.953Z,17.23
2019-05-20T16:23:51.654Z,21.77
2019-05-20T16:26:21.458Z,21.97
2019-05-20T16:28:51.558Z,19.90
2019-05-20T16:31:21.070Z,20.07
2019-05-20T16:33:51.108Z,19.27
2019-05-20T16:36:21.300Z,20.10
2019-05-20T16:38:51.619Z,21.37
2019-05-20T16:41:21.196Z,22.63
2019-05-20T16:43:51.155Z,21.57
2019-05-20T16:46:21.038Z,22.37
2019-05-20T16:48:50.722Z,25.60
2019-05-20T16:51:22.417Z,25.90
2019-05-20T16:53:51.880Z,25.80
2019-05-20T16:56:21.506Z,28.10
2019-05-20T16:58:52.085Z,31.57
2019-05-20T17:01:21.933Z,30.10
2019-05-20T17:03:52.270Z,26.23
2019-05-20T17:06:22.402Z,29.60
2019-05-20T17:08:52.475Z,29.40
2019-05-20T17:11:22.509Z,27.47
2019-05-20T17:13:52.368Z,25.83
2019-05-20T17:16:22.580Z,28.60
2019-05-20T17:18:52.936Z,32.83
2019-05-20T17:21:23.311Z,24.67
2019-05-20T17:23:53.676Z,28.77
2019-05-20T17:26:24.752Z,27.27
2019-05-20T17:28:55.966Z,29.03
2019-05-20T17:31:26.864Z,26.23
2019-05-20T17:33:57.860Z,26.07
2019-05-20T17:36:27.965Z,28.43
2019-05-20T17:39:00.554Z,27.20
2019-05-20T17:41:30.793Z,28.17
2019-05-20T17:44:01.006Z,28.33
2019-05-20T17:46:31.327Z,23.70
2019-05-20T17:49:01.116Z,26.10
2019-05-20T17:51:30.943Z,22.63
2019-05-20T17:54:00.791Z,24.40
2019-05-20T17:56:30.760Z,26.17
2019-05-20T17:59:00.340Z,24.50
2019-05-20T18:01:30.837Z,23.40
2019-05-20T18:04:00.668Z,22.47
2019-05-20T18:06:30.701Z,24.40
2019-05-20T18:09:01.654Z,23.87
2019-05-20T18:11:31.632Z,25.57
2019-05-20T18:14:01.530Z,29.40
2019-05-20T18:16:31.777Z,23.70
2019-05-20T18:19:04.583Z,24.20
2019-05-20T18:21:34.691Z,23.27
2019-05-20T18:24:05.030Z,29.80
2019-05-20T18:26:35.416Z,22.47
2019-05-20T18:29:05.538Z,23.23
2019-05-20T18:31:35.514Z,22.53
2019-05-20T18:34:05.586Z,23.87
2019-05-20T18:36:35.673Z,20.97
2019-05-20T18:39:07.392Z,23.77
2019-05-20T18:41:37.019Z,21.30
2019-05-20T18:44:07.662Z,23.27
2019-05-20T18:46:37.901Z,22.90
2019-05-20T18:49:08.365Z,24.17
2019-05-20T18:51:37.976Z,23.40
2019-05-20T18:54:08.215Z,26.00
2019-05-20T18:56:38.312Z,23.83
2019-05-20T18:59:08.355Z,24.20
2019-05-20T19:01:55.988Z,25.67
2019-05-20T19:04:17.955Z,31.03
2019-05-20T19:06:47.901Z,31.87
2019-05-20T19:09:17.931Z,25.30
2019-05-20T19:11:48.021Z,24.97
2019-05-20T19:14:18.300Z,26.70
2019-05-20T19:16:48.402Z,24.97
2019-05-20T19:19:18.454Z,17.93
2019-05-20T19:21:48.470Z,17.70
2019-05-20T19:24:18.293Z,19.40
2019-05-20T19:26:48.581Z,17.63
2019-05-20T19:29:23.042Z,17.03
2019-05-20T19:32:01.405Z,18.13
2019-05-20T19:34:24.687Z,14.77
2019-05-20T19:36:54.955Z,14.47
2019-05-20T19:39:24.961Z,13.20
2019-05-20T19:41:55.186Z,12.93
2019-05-20T19:44:25.484Z,11.97
2019-05-20T19:46:55.371Z,12.70
2019-05-20T19:49:25.640Z,13.00
2019-05-20T19:51:55.933Z,13.67
2019-05-20T19:54:29.048Z,12.07
2019-05-20T19:56:58.939Z,12.80
2019-05-20T19:59:28.737Z,13.23
2019-05-20T20:01:58.793Z,12.83
2019-05-20T20:04:28.618Z,11.83
2019-05-20T20:06:58.573Z,12.77
2019-05-20T20:09:33.102Z,11.10
2019-05-20T20:12:02.913Z,15.10
2019-05-20T20:14:32.974Z,13.47
2019-05-20T20:17:03.286Z,12.70
2019-05-20T20:19:32.859Z,13.53
2019-05-20T20:22:02.425Z,12.83
2019-05-20T20:24:31.931Z,14.17
2019-05-20T20:27:01.759Z,14.07
2019-05-20T20:29:35.889Z,14.87
2019-05-20T20:32:05.536Z,16.53
2019-05-20T20:34:35.072Z,16.17
2019-05-20T20:37:04.832Z,14.40
2019-05-20T20:39:36.183Z,14.93
2019-05-20T20:42:05.841Z,13.97
2019-05-20T20:44:35.374Z,14.07
2019-05-20T20:47:05.033Z,14.17
2019-05-20T20:49:34.502Z,15.33
2019-05-20T20:52:04.260Z,14.17
2019-05-20T20:54:33.795Z,13.87
2019-05-20T20:57:03.359Z,13.83
2019-05-20T20:59:32.895Z,13.33
2019-05-20T21:02:02.379Z,12.80
2019-05-20T21:04:32.772Z,13.33
2019-05-20T21:07:02.275Z,12.43
2019-05-20T21:09:31.918Z,14.07
2019-05-20T21:12:02.597Z,14.57
2019-05-20T21:14:32.310Z,12.93
2019-05-20T21:17:02.654Z,14.83
2019-05-20T21:19:32.504Z,11.90
2019-05-20T21:22:02.361Z,12.67
2019-05-20T21:24:31.880Z,13.00
2019-05-20T21:27:01.314Z,11.20
2019-05-20T21:29:32.691Z,12.47
2019-05-20T21:32:02.470Z,10.40
2019-05-20T21:34:32.729Z,11.23
2019-05-20T21:37:02.486Z,13.07
2019-05-20T21:39:31.932Z,12.70
2019-05-20T21:42:01.521Z,13.43
2019-05-20T21:44:33.132Z,13.80
2019-05-20T21:47:12.314Z,17.30
2019-05-20T21:49:41.918Z,15.67
2019-05-20T21:52:13.363Z,16.27
2019-05-20T21:54:43.027Z,16.07
2019-05-20T21:57:16.065Z,16.50
2019-05-20T21:59:45.510Z,15.77
2019-05-20T22:02:14.856Z,15.97
2019-05-20T22:04:44.283Z,14.87
2019-05-20T22:07:13.749Z,15.83
2019-05-20T22:09:43.191Z,16.27
2019-05-20T22:12:12.793Z,16.13
2019-05-20T22:14:42.300Z,14.83
2019-05-20T22:17:11.763Z,17.50
2019-05-20T22:19:41.288Z,15.07
2019-05-20T22:22:29.688Z,14.43
2019-05-20T22:24:59.149Z,15.10
2019-05-20T22:27:28.596Z,16.87
2019-05-20T22:29:58.093Z,18.50
2019-05-20T22:32:27.660Z,20.40
2019-05-20T22:34:57.176Z,18.87
2019-05-20T22:37:26.650Z,20.27
2019-05-20T22:39:56.377Z,22.40
2019-05-20T22:42:25.779Z,24.10
2019-05-20T22:44:55.500Z,21.10
2019-05-20T22:47:25.149Z,23.57
2019-05-20T22:49:55.560Z,23.33
2019-05-20T22:52:25.720Z,22.63
2019-05-20T22:54:55.181Z,24.97
2019-05-20T22:57:25.128Z,25.77
2019-05-20T22:59:54.740Z,26.23
2019-05-20T23:02:24.485Z,27.33
2019-05-20T23:04:54.020Z,23.03
2019-05-20T23:07:23.700Z,20.97
2019-05-20T23:09:53.143Z,20.70
2019-05-20T23:12:22.567Z,22.53
2019-05-20T23:14:53.051Z,23.30
2019-05-20T23:17:22.576Z,18.57
2019-05-20T23:19:52.035Z,18.67
2019-05-20T23:22:21.591Z,17.33
2019-05-20T23:24:51.109Z,16.00
2019-05-20T23:27:20.658Z,12.03
2019-05-20T23:29:50.204Z,12.47
2019-05-20T23:32:19.914Z,13.33
2019-05-20T23:34:49.375Z,10.67
2019-05-20T23:37:19.214Z,14.07
2019-05-20T23:39:48.598Z,11.63
2019-05-20T23:42:18.081Z,12.30
2019-05-20T23:44:47.499Z,13.10
2019-05-20T23:47:17.092Z,11.37
2019-05-20T23:49:46.560Z,11.40
2019-05-20T23:52:16.304Z,12.37
2019-05-20T23:54:45.848Z,11.17
2019-05-20T23:57:15.314Z,10.97
2019-05-20T23:59:44.775Z,8.90
